Time;durP1;ratioP1;P1;durP2;ratioP2;P2;SDS_P1;SDS_P2;PMS_P1;PMS_P2;Temp;Humidity;BMP_temperature;BMP_pressure;BME280_temperature;BME280_humidity;BME280_pressure;Samples;Min_cycle;Max_cycle;Signal;HPM_P1;HPM_P2
2022/05/15 00:02:43;;;;;;;4.05;1.95;;;16.40;74.90;;;;;;4955115;29;20112;-76
2022/05/15 00:05:09;;;;;;;3.30;2.13;;;16.40;74.70;;;;;;4955448;29;20046;-76
2022/05/15 00:07:35;;;;;;;2.20;1.67;;;16.40;75.00;;;;;;4954405;29;20031;-76
2022/05/15 00:10:02;;;;;;;3.33;1.90;;;16.40;75.10;;;;;;4953650;29;20031;-76
2022/05/15 00:12:28;;;;;;;6.70;1.75;;;16.40;75.50;;;;;;4955397;29;20047;-76
2022/05/15 00:14:54;;;;;;;4.85;2.08;;;16.30;75.50;;;;;;4954591;29;20028;-76
2022/05/15 00:17:19;;;;;;;3.08;1.90;;;16.30;76.00;;;;;;4954316;29;20535;-76
2022/05/15 00:19:45;;;;;;;4.03;2.10;;;16.20;76.70;;;;;;4953652;29;20027;-77
2022/05/15 00:22:11;;;;;;;4.15;1.92;;;16.10;77.30;;;;;;4953755;29;20051;-77
2022/05/15 00:24:37;;;;;;;5.53;2.15;;;16.00;77.30;;;;;;4955318;29;20031;-77
2022/05/15 00:27:04;;;;;;;4.80;1.60;;;15.90;77.40;;;;;;4953861;29;20027;-77
2022/05/15 00:29:30;;;;;;;3.25;1.90;;;15.90;77.50;;;;;;4955294;29;20034;-77
2022/05/15 00:31:56;;;;;;;3.80;2.10;;;15.90;77.60;;;;;;4954999;29;20035;-77
2022/05/15 00:34:21;;;;;;;6.20;2.00;;;15.90;77.30;;;;;;4953841;29;20027;-77
2022/05/15 00:36:47;;;;;;;3.95;2.38;;;15.90;77.50;;;;;;4954631;29;20480;-77
2022/05/15 00:39:13;;;;;;;4.47;2.00;;;15.80;77.80;;;;;;4953868;29;20033;-78
2022/05/15 00:41:40;;;;;;;3.22;1.77;;;15.70;77.90;;;;;;4954933;29;20030;-76
2022/05/15 00:44:07;;;;;;;5.10;1.80;;;15.70;78.00;;;;;;4953919;29;20038;-79
2022/05/15 00:46:39;;;;;;;3.55;1.95;;;15.60;78.30;;;;;;4953621;29;20031;-78
2022/05/15 00:49:11;;;;;;;4.80;2.08;;;15.50;78.80;;;;;;4953506;29;20035;-78
2022/05/15 00:51:56;;;;;;;3.42;1.60;;;15.40;79.00;;;;;;4953919;29;20118;-78
2022/05/15 00:54:29;;;;;;;7.90;2.47;;;15.40;79.10;;;;;;4956662;29;20043;-77
2022/05/15 00:57:00;;;;;;;3.65;2.00;;;15.40;79.20;;;;;;4957252;29;20106;-77
2022/05/15 00:59:27;;;;;;;;;;;15.30;79.60;;;;;;4958119;29;20031;-77
2022/05/15 01:01:53;;;;;;;4.10;1.90;;;15.40;80.00;;;;;;4956895;29;19947;-77
2022/05/15 01:04:19;;;;;;;5.82;2.03;;;15.40;79.40;;;;;;4957474;29;20473;-77
2022/05/15 01:06:45;;;;;;;5.75;1.70;;;15.40;79.80;;;;;;4956622;29;20023;-76
2022/05/15 01:09:12;;;;;;;4.60;2.10;;;15.30;79.80;;;;;;4957365;29;20027;-77
2022/05/15 01:11:39;;;;;;;6.45;2.28;;;15.40;79.70;;;;;;4958586;29;20023;-76
2022/05/15 01:14:09;;;;;;;3.65;1.95;;;15.40;79.50;;;;;;4956728;29;20469;-76
2022/05/15 01:16:36;;;;;;;5.18;2.17;;;15.40;79.40;;;;;;4957123;29;20524;-76
2022/05/15 01:19:03;;;;;;;3.42;2.08;;;15.40;79.50;;;;;;4956843;29;20027;-76
2022/05/15 01:21:57;;;;;;;4.15;2.22;;;15.40;79.80;;;;;;4957325;29;20122;-77
2022/05/15 01:24:24;;;;;;;2.55;1.80;;;15.40;80.00;;;;;;4957973;29;20492;-76
2022/05/15 01:26:50;;;;;;;4.72;2.35;;;15.40;80.20;;;;;;4956505;29;20034;-77
2022/05/15 01:29:16;;;;;;;3.63;2.10;;;15.50;80.10;;;;;;4957332;29;20039;-77
2022/05/15 01:31:43;;;;;;;3.58;2.38;;;15.40;80.30;;;;;;4956549;29;20031;-77
2022/05/15 01:34:11;;;;;;;4.47;2.30;;;15.40;80.70;;;;;;4959969;28;20397;-77
2022/05/15 01:36:37;;;;;;;4.20;2.65;;;15.40;81.20;;;;;;4961982;28;20034;-77
2022/05/15 01:39:05;;;;;;;4.68;2.28;;;15.40;81.60;;;;;;4975819;28;20208;-77
2022/05/15 01:41:30;;;;;;;6.68;3.15;;;15.30;81.90;;;;;;4976158;28;20152;-77
2022/05/15 01:43:56;;;;;;;4.43;2.15;;;15.30;82.10;;;;;;4977137;28;20171;-77
2022/05/15 01:46:24;;;;;;;4.97;2.50;;;15.20;82.60;;;;;;4976620;28;20155;-77
2022/05/15 01:48:51;;;;;;;2.78;2.10;;;15.10;83.10;;;;;;4977339;28;20467;-77
2022/05/15 01:51:17;;;;;;;3.30;2.28;;;15.00;83.60;;;;;;4977511;28;20030;-77
2022/05/15 01:53:43;;;;;;;4.22;2.63;;;14.90;84.10;;;;;;4976343;28;20038;-77
2022/05/15 01:56:09;;;;;;;3.20;2.10;;;14.90;85.00;;;;;;4977388;28;20053;-77
2022/05/15 01:58:35;;;;;;;3.40;2.05;;;14.90;84.80;;;;;;4976473;28;20065;-77
2022/05/15 02:01:01;;;;;;;3.60;2.28;;;14.90;84.90;;;;;;4976539;28;20062;-77
2022/05/15 02:03:27;;;;;;;5.60;2.90;;;14.80;85.20;;;;;;4976385;28;20387;-77
2022/05/15 02:05:53;;;;;;;4.78;2.78;;;14.80;85.60;;;;;;4975265;28;20023;-78
2022/05/15 02:08:18;;;;;;;4.43;2.42;;;14.80;85.50;;;;;;4960088;28;20468;-78
2022/05/15 02:10:45;;;;;;;4.63;2.85;;;14.80;85.50;;;;;;4977095;28;20352;-78
2022/05/15 02:13:11;;;;;;;4.20;2.70;;;14.80;86.10;;;;;;4976859;28;20139;-78
2022/05/15 02:15:37;;;;;;;7.32;2.70;;;14.80;86.40;;;;;;4976040;28;20062;-78
2022/05/15 02:18:04;;;;;;;6.28;2.83;;;14.70;86.40;;;;;;4959164;28;20058;-78
2022/05/15 02:20:32;;;;;;;6.97;2.67;;;14.80;86.40;;;;;;4975584;28;20022;-78
2022/05/15 02:22:58;;;;;;;4.25;2.40;;;14.70;87.10;;;;;;4975300;28;20062;-78
2022/05/15 02:25:24;;;;;;;3.45;2.30;;;14.70;87.20;;;;;;4975768;28;20030;-79
2022/05/15 02:27:50;;;;;;;6.80;2.30;;;14.70;87.70;;;;;;4975469;28;20037;-77
2022/05/15 02:30:17;;;;;;;3.40;2.50;;;14.60;87.70;;;;;;4976135;28;20027;-77
2022/05/15 02:32:43;;;;;;;5.93;2.83;;;14.60;87.30;;;;;;4975667;28;20038;-78
2022/05/15 02:35:10;;;;;;;4.22;2.40;;;14.60;87.90;;;;;;4974999;28;20121;-77
2022/05/15 02:37:36;;;;;;;3.75;2.35;;;14.60;87.90;;;;;;4975225;28;20038;-77
2022/05/15 02:40:03;;;;;;;4.55;2.30;;;14.50;88.20;;;;;;4975624;28;20023;-78
2022/05/15 02:42:29;;;;;;;3.72;2.30;;;14.50;88.30;;;;;;4975562;28;20090;-78
2022/05/15 02:44:54;;;;;;;3.53;2.50;;;14.50;88.40;;;;;;4974811;28;20027;-78
2022/05/15 02:47:20;;;;;;;4.38;2.20;;;14.50;88.90;;;;;;4975468;28;20122;-78
2022/05/15 02:52:30;;;;;;;2.67;2.10;;;14.40;89.20;;;;;;4976313;28;20046;-78
2022/05/15 02:54:55;;;;;;;6.35;2.10;;;14.30;89.50;;;;;;4958710;28;20031;-78
2022/05/15 02:57:21;;;;;;;5.50;2.47;;;14.30;90.00;;;;;;4975226;28;20034;-78
2022/05/15 02:59:47;;;;;;;10.63;2.50;;;14.20;90.00;;;;;;4958989;28;20421;-77
2022/05/15 03:02:12;;;;;;;4.43;2.45;;;14.20;90.00;;;;;;4974787;28;20034;-78
2022/05/15 03:04:38;;;;;;;3.08;2.30;;;14.20;90.00;;;;;;4976237;28;20481;-78
2022/05/15 03:07:05;;;;;;;7.15;2.40;;;14.10;90.30;;;;;;4958359;28;20069;-78
2022/05/15 03:09:31;;;;;;;6.47;2.17;;;14.10;90.20;;;;;;4974589;28;20031;-78
2022/05/15 03:11:57;;;;;;;5.43;2.33;;;14.20;90.10;;;;;;4975381;28;20034;-78
2022/05/15 03:14:22;;;;;;;3.85;2.70;;;14.20;90.00;;;;;;4974852;28;20027;-78
2022/05/15 03:16:48;;;;;;;5.50;1.98;;;14.20;90.00;;;;;;4973426;28;20034;-77
2022/05/15 03:19:14;;;;;;;3.95;2.50;;;14.20;90.00;;;;;;4958593;28;20034;-78
2022/05/15 03:21:39;;;;;;;5.22;2.60;;;14.20;90.10;;;;;;4975733;28;20392;-78
2022/05/15 03:24:08;;;;;;;4.80;2.25;;;14.30;90.00;;;;;;4974418;28;20026;-78
2022/05/15 03:26:39;;;;;;;4.90;2.28;;;14.20;90.50;;;;;;4975706;28;20031;-78
2022/05/15 03:29:05;;;;;;;5.20;2.33;;;14.30;90.40;;;;;;4974228;28;20033;-78
2022/05/15 03:31:35;;;;;;;4.88;2.58;;;14.30;90.40;;;;;;4974804;28;20027;-79
2022/05/15 03:34:01;;;;;;;4.93;2.40;;;14.20;90.60;;;;;;4974180;28;20046;-79
2022/05/15 03:36:26;;;;;;;4.15;2.30;;;14.10;90.70;;;;;;4974811;28;20026;-78
2022/05/15 03:38:52;;;;;;;5.20;2.30;;;14.10;90.80;;;;;;4974966;28;20391;-78
2022/05/15 03:41:18;;;;;;;3.47;2.35;;;14.00;90.90;;;;;;4974352;28;20037;-79
2022/05/15 03:43:44;;;;;;;3.40;2.40;;;14.10;91.00;;;;;;4974567;28;20027;-79
2022/05/15 03:46:09;;;;;;;3.80;2.45;;;14.10;91.00;;;;;;4973764;28;20476;-79
2022/05/15 03:48:35;;;;;;;3.97;2.40;;;14.10;91.00;;;;;;4975268;28;20077;-78
2022/05/15 03:51:01;;;;;;;4.70;2.40;;;14.10;91.00;;;;;;4957390;28;20035;-78
2022/05/15 03:53:27;;;;;;;2.80;2.30;;;14.10;91.10;;;;;;4957944;28;20126;-78
2022/05/15 03:55:56;;;;;;;4.20;2.15;;;14.10;91.30;;;;;;4973557;28;20475;-77
2022/05/15 03:58:24;;;;;;;5.65;2.50;;;14.10;91.40;;;;;;4975139;28;20019;-78
2022/05/15 04:00:50;;;;;;;3.90;2.17;;;14.00;91.30;;;;;;4973131;28;20030;-77
2022/05/15 04:03:15;;;;;;;6.25;2.88;;;14.00;91.50;;;;;;4973493;28;20476;-78
2022/05/15 04:05:42;;;;;;;3.92;2.38;;;14.00;91.40;;;;;;4974235;28;20050;-78
2022/05/15 04:08:08;;;;;;;4.40;2.25;;;14.00;91.80;;;;;;4973272;28;20086;-79
2022/05/15 04:10:33;;;;;;;5.72;2.25;;;14.00;91.80;;;;;;4974677;28;20197;-79
2022/05/15 04:12:59;;;;;;;3.90;2.45;;;13.90;92.20;;;;;;4972975;28;20043;-78
2022/05/15 04:15:24;;;;;;;3.55;1.95;;;13.80;92.20;;;;;;4974830;28;20472;-79
2022/05/15 04:17:51;;;;;;;4.03;2.53;;;13.80;92.20;;;;;;4957483;28;20034;-79
2022/05/15 04:20:19;;;;;;;3.00;2.20;;;13.80;92.20;;;;;;4973064;28;20448;-79
2022/05/15 04:22:45;;;;;;;4.15;2.47;;;13.80;92.20;;;;;;4973216;28;20082;-78
2022/05/15 04:25:11;;;;;;;3.65;2.15;;;13.80;92.20;;;;;;4972192;28;20073;-78
2022/05/15 04:27:38;;;;;;;4.97;2.35;;;13.70;92.30;;;;;;4972969;28;20038;-78
2022/05/15 04:30:05;;;;;;;7.88;2.80;;;13.70;92.40;;;;;;4972352;28;20070;-78
2022/05/15 04:32:30;;;;;;;3.90;2.25;;;13.70;92.50;;;;;;4973263;28;20042;-77
2022/05/15 04:34:56;;;;;;;6.72;2.35;;;13.70;92.60;;;;;;4956886;28;20035;-77
2022/05/15 04:37:22;;;;;;;5.97;2.72;;;13.70;92.80;;;;;;4973277;28;20031;-77
2022/05/15 04:39:47;;;;;;;5.93;2.20;;;13.80;92.60;;;;;;4973464;28;20122;-77
2022/05/15 04:42:13;;;;;;;2.53;2.08;;;13.80;92.60;;;;;;4972820;28;20476;-77
2022/05/15 04:44:39;;;;;;;5.15;2.40;;;13.80;92.70;;;;;;4957597;28;20030;-78
2022/05/15 04:47:05;;;;;;;3.88;2.90;;;13.80;92.30;;;;;;4956710;28;20037;-78
2022/05/15 04:49:30;;;;;;;3.53;2.33;;;13.90;92.40;;;;;;4974501;28;20107;-78
2022/05/15 04:51:56;;;;;;;5.45;2.28;;;13.90;92.40;;;;;;4973815;28;20524;-77
2022/05/15 04:54:21;;;;;;;5.43;2.65;;;13.90;92.30;;;;;;4957233;28;20030;-78
2022/05/15 04:56:47;;;;;;;4.03;2.40;;;14.00;92.30;;;;;;4973475;28;20027;-78
2022/05/15 04:59:13;;;;;;;4.28;2.38;;;14.00;92.10;;;;;;4972763;28;20031;-78
2022/05/15 05:01:38;;;;;;;8.13;2.72;;;14.00;92.20;;;;;;4973254;28;20027;-76
2022/05/15 05:04:04;;;;;;;6.03;2.22;;;14.00;92.20;;;;;;4956200;28;20472;-76
2022/05/15 05:06:30;;;;;;;5.95;2.08;;;14.10;92.30;;;;;;4972851;28;20027;-76
2022/05/15 05:08:55;;;;;;;5.45;2.35;;;14.10;92.40;;;;;;4972774;28;20037;-75
2022/05/15 05:11:22;;;;;;;5.70;2.30;;;14.10;92.40;;;;;;4973795;28;20034;-76
2022/05/15 05:13:47;;;;;;;3.28;2.22;;;14.20;92.60;;;;;;4972837;28;20031;-76
2022/05/15 05:16:13;;;;;;;8.00;2.63;;;14.20;92.80;;;;;;4972366;28;20095;-76
2022/05/15 05:18:39;;;;;;;4.07;2.20;;;14.20;92.80;;;;;;4973867;28;20110;-76
2022/05/15 05:21:05;;;;;;;4.40;2.30;;;14.20;93.00;;;;;;4973463;28;20026;-77
2022/05/15 05:23:31;;;;;;;3.55;2.22;;;14.20;93.10;;;;;;4973106;28;20062;-78
2022/05/15 05:25:57;;;;;;;4.35;2.67;;;14.30;93.20;;;;;;4973690;28;20041;-77
2022/05/15 05:28:23;;;;;;;3.00;2.13;;;14.30;93.30;;;;;;4956565;28;20027;-77
2022/05/15 05:30:50;;;;;;;4.50;2.25;;;14.40;93.30;;;;;;4974151;28;20022;-77
2022/05/15 05:33:15;;;;;;;4.32;2.10;;;14.40;93.50;;;;;;4972415;28;20443;-77
2022/05/15 05:35:41;;;;;;;3.92;2.03;;;14.50;93.40;;;;;;4974122;28;20034;-77
2022/05/15 05:38:07;;;;;;;3.78;2.17;;;14.50;93.50;;;;;;4973334;28;20027;-76
2022/05/15 05:40:33;;;;;;;2.92;2.35;;;14.50;93.60;;;;;;4975593;28;20022;-76
2022/05/15 05:42:59;;;;;;;5.07;2.10;;;14.60;93.60;;;;;;4975806;28;20027;-77
2022/05/15 05:45:25;;;;;;;5.82;2.40;;;14.60;93.70;;;;;;4976464;28;20030;-78
2022/05/15 05:47:51;;;;;;;4.13;2.53;;;14.70;93.90;;;;;;4960424;28;20520;-78
2022/05/15 05:50:19;;;;;;;4.03;2.38;;;14.80;93.90;;;;;;4975417;28;20023;-77
2022/05/15 05:52:45;;;;;;;7.68;2.70;;;14.80;93.80;;;;;;4976282;28;20106;-78
2022/05/15 05:55:14;;;;;;;4.68;2.53;;;14.90;93.90;;;;;;4975611;28;20595;-78
2022/05/15 05:57:41;;;;;;;5.82;2.67;;;14.90;93.90;;;;;;4976316;28;20034;-79
2022/05/15 06:00:10;;;;;;;4.50;2.30;;;15.00;94.10;;;;;;4975663;28;20460;-78
2022/05/15 06:02:36;;;;;;;2.92;2.10;;;15.00;93.90;;;;;;4976240;28;20038;-78
2022/05/15 06:05:01;;;;;;;3.25;2.08;;;15.10;93.90;;;;;;4975304;28;20033;-77
2022/05/15 06:07:28;;;;;;;6.15;2.05;;;15.10;93.90;;;;;;4975925;28;20066;-77
2022/05/15 06:09:54;;;;;;;4.00;2.13;;;15.20;93.90;;;;;;4977061;28;20030;-78
2022/05/15 06:12:23;;;;;;;8.07;1.90;;;15.30;93.90;;;;;;4975119;28;20027;-77
2022/05/15 06:14:50;;;;;;;4.13;2.03;;;15.30;93.50;;;;;;4975464;28;20122;-76
2022/05/15 06:17:23;;;;;;;2.92;1.88;;;15.40;93.50;;;;;;4958964;28;20388;-77
2022/05/15 06:19:49;;;;;;;7.22;2.05;;;15.50;93.80;;;;;;4976745;28;20527;-77
2022/05/15 06:22:15;;;;;;;4.15;1.90;;;15.60;93.10;;;;;;4974744;28;20139;-77
2022/05/15 06:24:41;;;;;;;6.18;1.85;;;15.60;92.90;;;;;;4977109;28;20038;-78
2022/05/15 06:27:07;;;;;;;5.25;1.70;;;15.70;92.70;;;;;;4976464;28;20030;-77
2022/05/15 06:29:32;;;;;;;3.58;2.00;;;15.70;92.60;;;;;;4959398;28;20023;-78
2022/05/15 06:31:59;;;;;;;5.45;1.95;;;15.80;92.80;;;;;;4975570;28;20477;-77
2022/05/15 06:34:25;;;;;;;3.67;2.00;;;15.90;92.20;;;;;;4959069;28;20037;-78
2022/05/15 06:36:51;;;;;;;2.67;1.83;;;16.00;92.30;;;;;;4975694;28;20031;-77
2022/05/15 06:39:17;;;;;;;4.40;1.90;;;16.10;92.20;;;;;;4976030;28;20078;-77
2022/05/15 06:41:43;;;;;;;3.28;1.70;;;16.10;92.20;;;;;;4975295;28;20030;-78
2022/05/15 06:44:09;;;;;;;2.67;1.40;;;16.20;91.90;;;;;;4974924;28;20159;-78
2022/05/15 06:46:34;;;;;;;3.67;1.90;;;16.30;91.80;;;;;;4976805;28;20177;-77
2022/05/15 06:49:00;;;;;;;3.72;1.73;;;16.40;91.50;;;;;;4975317;28;20042;-76
2022/05/15 06:51:26;;;;;;;3.92;2.17;;;16.50;91.50;;;;;;4973463;28;20476;-77
2022/05/15 06:53:52;;;;;;;3.80;1.63;;;16.50;90.90;;;;;;4974931;28;20035;-77
2022/05/15 06:59:03;;;;;;;4.57;1.63;;;16.70;90.80;;;;;;4975525;28;20098;-76
2022/05/15 07:01:30;;;;;;;5.35;2.85;;;16.70;91.00;;;;;;4974582;28;20033;-78
2022/05/15 07:03:56;;;;;;;3.50;2.13;;;16.80;90.80;;;;;;4957930;28;20027;-77
2022/05/15 07:06:22;;;;;;;3.83;1.50;;;16.90;90.50;;;;;;4973536;28;20110;-77
2022/05/15 07:08:48;;;;;;;4.15;1.83;;;17.00;90.60;;;;;;4974436;28;20034;-78
2022/05/15 07:11:15;;;;;;;4.00;1.60;;;17.10;90.80;;;;;;4957748;28;20027;-78
2022/05/15 07:13:41;;;;;;;3.60;1.63;;;17.20;89.70;;;;;;4975405;28;20031;-78
2022/05/15 07:16:07;;;;;;;5.43;2.00;;;17.20;89.00;;;;;;4974953;28;20030;-77
2022/05/15 07:18:32;;;;;;;3.85;1.70;;;17.30;88.90;;;;;;4974057;28;20038;-78
2022/05/15 07:20:59;;;;;;;2.85;1.70;;;17.40;88.80;;;;;;4975403;28;20050;-77
2022/05/15 07:23:26;;;;;;;3.33;1.88;;;17.40;88.80;;;;;;4972509;28;20117;-77
2022/05/15 07:25:54;;;;;;;4.78;1.73;;;17.40;88.70;;;;;;4974042;28;20113;-79
2022/05/15 07:28:19;;;;;;;4.90;1.55;;;17.50;90.10;;;;;;4973463;28;20023;-77
2022/05/15 07:30:45;;;;;;;8.20;1.88;;;17.50;90.10;;;;;;4972551;28;20030;-78
2022/05/15 07:33:11;;;;;;;9.75;1.70;;;17.60;90.00;;;;;;4974618;28;20045;-80
2022/05/15 07:35:37;;;;;;;4.68;1.80;;;17.60;89.40;;;;;;4974567;28;20031;-78
2022/05/15 07:38:02;;;;;;;4.38;1.73;;;17.70;88.60;;;;;;4973901;28;20027;-78
2022/05/15 07:40:28;;;;;;;3.05;1.50;;;17.80;89.10;;;;;;4957555;28;20049;-79
2022/05/15 07:42:53;;;;;;;3.05;1.75;;;17.90;89.00;;;;;;4974119;28;20066;-78
2022/05/15 07:45:20;;;;;;;4.70;1.33;;;17.90;89.50;;;;;;4974367;28;20027;-78
2022/05/15 07:47:46;;;;;;;3.28;1.70;;;18.00;88.00;;;;;;4974460;28;20034;-77
2022/05/15 07:50:12;;;;;;;4.65;1.60;;;18.00;88.20;;;;;;4974064;28;20031;-78
2022/05/15 07:52:38;;;;;;;3.95;1.30;;;18.10;86.90;;;;;;4973202;28;20121;-80
2022/05/15 07:55:08;;;;;;;2.78;1.40;;;18.20;87.60;;;;;;4973800;28;20535;-78
2022/05/15 07:57:35;;;;;;;2.42;1.33;;;18.20;87.90;;;;;;4973325;28;20081;-79
2022/05/15 08:00:03;;;;;;;2.67;1.60;;;18.30;87.20;;;;;;4971728;28;20026;-79
2022/05/15 08:02:29;;;;;;;3.33;1.50;;;18.40;87.00;;;;;;4966722;28;20062;-76
2022/05/15 08:08:21;;;;;;;3.55;1.48;;;18.40;86.60;;;;;;4967732;28;20109;-77
2022/05/15 08:10:33;;;;;;;2.38;1.00;;;18.50;86.30;;;;;;4967040;28;20133;-76
2022/05/15 08:12:59;;;;;;;3.33;1.42;;;18.60;86.00;;;;;;4972122;28;20026;-77
2022/05/15 08:15:26;;;;;;;2.53;1.30;;;18.60;85.60;;;;;;4971468;28;20089;-77
2022/05/15 08:17:52;;;;;;;5.00;2.40;;;18.80;85.70;;;;;;4972199;28;20062;-77
2022/05/15 08:25:47;;;;;;;3.00;1.50;;;19.00;83.70;;;;;;4980534;28;20392;-76
2022/05/15 08:28:14;;;;;;;4.32;1.27;;;19.10;83.00;;;;;;4980535;28;20114;-77
2022/05/15 08:30:40;;;;;;;4.20;1.40;;;19.20;83.90;;;;;;4973303;28;20031;-75
2022/05/15 08:33:09;;;;;;;3.10;1.42;;;19.20;83.80;;;;;;4970448;28;20391;-75
2022/05/15 08:35:35;;;;;;;4.63;1.33;;;19.30;84.30;;;;;;4972152;28;20122;-74
2022/05/15 08:38:00;;;;;;;2.83;1.38;;;19.50;82.10;;;;;;4971894;28;20023;-75
2022/05/15 08:40:32;;;;;;;3.63;1.30;;;19.50;82.10;;;;;;4971188;28;20494;-75
2022/05/15 08:42:59;;;;;;;3.92;1.30;;;19.60;81.10;;;;;;4971689;28;20037;-75
2022/05/15 08:45:29;;;;;;;2.30;1.08;;;19.70;82.20;;;;;;4971057;28;20053;-76
2022/05/15 08:48:12;;;;;;;2.55;1.67;;;19.70;80.90;;;;;;4971791;28;20074;-74
2022/05/15 08:51:07;;;;;;;2.35;1.20;;;19.80;81.00;;;;;;4972091;28;20031;-74
2022/05/15 08:53:37;;;;;;;3.45;1.20;;;19.90;81.30;;;;;;4937135;28;20084;-74
2022/05/15 08:56:08;;;;;;;3.63;1.25;;;19.90;81.60;;;;;;4971579;28;20031;-74
2022/05/15 08:58:39;;;;;;;4.03;1.30;;;20.00;81.10;;;;;;4972783;28;20034;-73
2022/05/15 09:01:08;;;;;;;5.13;1.05;;;20.00;80.20;;;;;;4986427;28;20034;-76
2022/05/15 09:03:38;;;;;;;2.42;1.10;;;20.10;79.70;;;;;;4972893;28;20031;-73
2022/05/15 09:06:22;;;;;;;4.82;1.10;;;20.20;80.90;;;;;;4971560;28;20058;-73
2022/05/15 09:09:06;;;;;;;3.70;1.10;;;20.10;80.40;;;;;;4955547;28;20568;-73
2022/05/15 09:11:55;;;;;;;3.40;1.50;;;20.20;79.50;;;;;;4941647;28;20026;-76
2022/05/15 09:14:41;;;;;;;1.33;1.10;;;20.10;80.10;;;;;;4972047;28;20043;-79
2022/05/15 09:17:18;;;;;;;3.63;1.02;;;20.20;79.60;;;;;;4958338;28;20042;-76
2022/05/15 09:19:48;;;;;;;1.80;1.10;;;20.10;81.00;;;;;;4956169;29;20478;-75
2022/05/15 09:22:15;;;;;;;2.78;1.10;;;20.20;80.50;;;;;;4974592;28;20555;-75
2022/05/15 09:24:51;;;;;;;3.88;1.00;;;20.30;82.10;;;;;;4959579;28;20436;-75
2022/05/15 09:27:22;;;;;;;4.78;1.35;;;20.40;78.90;;;;;;4975282;28;20500;-76
2022/05/15 09:29:56;;;;;;;;;;;20.40;79.80;;;;;;4975464;28;20031;-76
2022/05/15 09:32:28;;;;;;;12.80;4.97;;;20.50;78.50;;;;;;4974335;28;19922;-76
2022/05/15 09:34:57;;;;;;;21.13;13.45;;;20.70;77.40;;;;;;4974730;28;20039;-75
2022/05/15 09:40:13;;;;;;;4.17;1.37;;;20.80;78.60;;;;;;4974689;28;20038;-75
2022/05/15 09:45:54;;;;;;;4.00;1.08;;;21.10;77.20;;;;;;4973318;28;20034;-74
2022/05/15 09:48:24;;;;;;;2.63;0.93;;;21.20;77.70;;;;;;4971633;28;20093;-74
2022/05/15 09:50:52;;;;;;;2.28;1.05;;;21.20;77.40;;;;;;4974634;28;20030;-74
2022/05/15 09:53:36;;;;;;;3.67;1.20;;;21.30;76.20;;;;;;4957526;28;20387;-75
2022/05/15 09:56:06;;;;;;;3.22;1.00;;;21.30;74.30;;;;;;4958267;28;20035;-74
2022/05/15 09:58:43;;;;;;;2.03;1.00;;;21.40;75.90;;;;;;4974783;28;20369;-76
2022/05/15 10:01:25;;;;;;;3.80;1.00;;;21.50;75.40;;;;;;4973597;28;20035;-77
2022/05/15 10:03:55;;;;;;;2.45;1.30;;;21.40;74.70;;;;;;4974116;28;20022;-75
2022/05/15 10:06:25;;;;;;;2.58;1.05;;;21.60;75.30;;;;;;4975085;28;20030;-75
2022/05/15 10:09:15;;;;;;;3.03;0.95;;;21.60;75.40;;;;;;4974235;28;20432;-75
2022/05/15 10:11:58;;;;;;;1.90;1.10;;;21.50;74.90;;;;;;4975381;28;20103;-75
2022/05/15 10:14:33;;;;;;;2.30;1.30;;;21.70;77.50;;;;;;4973142;28;20054;-75
2022/05/15 10:17:00;;;;;;;4.50;1.13;;;21.80;74.80;;;;;;4957809;28;20022;-75
2022/05/15 10:19:32;;;;;;;1.60;1.00;;;21.90;72.40;;;;;;4973270;28;20054;-75
2022/05/15 10:22:27;;;;;;;2.30;0.88;;;22.00;72.20;;;;;;4974870;28;20148;-75
2022/05/15 10:24:56;;;;;;;1.98;0.73;;;22.10;72.80;;;;;;4972195;28;20065;-75
2022/05/15 10:27:27;;;;;;;3.88;1.00;;;22.10;70.20;;;;;;4973875;28;20058;-75
2022/05/15 10:30:07;;;;;;;1.58;1.00;;;22.10;68.40;;;;;;4973464;28;20022;-75
2022/05/15 10:32:41;;;;;;;2.60;0.98;;;22.20;71.60;;;;;;4968631;28;20570;-76
2022/05/15 10:35:13;;;;;;;3.72;1.05;;;22.40;70.30;;;;;;4975261;28;20148;-76
2022/05/15 10:37:57;;;;;;;1.42;1.15;;;22.50;70.20;;;;;;4973354;28;20050;-74
2022/05/15 10:40:40;;;;;;;4.65;1.02;;;22.50;70.90;;;;;;4973124;28;20038;-76
2022/05/15 10:43:25;;;;;;;2.10;1.25;;;22.50;70.30;;;;;;4973017;28;20026;-74
2022/05/15 10:45:55;;;;;;;4.07;1.00;;;22.50;71.00;;;;;;4957348;28;20117;-74
2022/05/15 10:48:46;;;;;;;1.23;0.90;;;22.70;67.40;;;;;;4977708;28;20037;-74
2022/05/15 10:51:33;;;;;;;3.17;0.80;;;22.80;69.10;;;;;;4952321;28;20126;-76
2022/05/15 10:57:29;;;;;;;1.75;0.85;;;22.90;66.10;;;;;;4967018;28;20038;-75
2022/05/15 11:00:10;;;;;;;2.67;0.88;;;23.00;66.80;;;;;;4955128;28;20023;-75
2022/05/15 11:02:44;;;;;;;5.00;0.82;;;23.10;67.10;;;;;;4967061;28;20034;-76
2022/05/15 11:05:28;;;;;;;1.65;0.98;;;23.10;64.50;;;;;;4964618;28;20042;-76
2022/05/15 11:08:16;;;;;;;2.50;1.00;;;23.20;64.50;;;;;;4969749;28;20035;-75
2022/05/15 11:11:06;;;;;;;4.45;1.10;;;23.20;66.40;;;;;;4970352;28;20527;-74
2022/05/15 11:13:40;;;;;;;2.22;0.98;;;23.30;65.50;;;;;;4968072;28;20134;-75
2022/05/15 11:16:34;;;;;;;2.40;1.00;;;23.40;65.50;;;;;;4972539;28;20066;-76
2022/05/15 11:19:15;;;;;;;1.48;0.90;;;23.50;63.10;;;;;;4971515;28;20088;-75
2022/05/15 11:22:20;;;;;;;3.60;1.05;;;23.50;64.50;;;;;;4971752;28;20043;-75
2022/05/15 11:25:10;;;;;;;1.92;0.90;;;23.70;64.60;;;;;;4943173;28;20031;-75
2022/05/15 11:27:41;;;;;;;2.65;1.48;;;23.60;64.50;;;;;;4960249;28;20026;-76
2022/05/15 11:30:32;;;;;;;3.20;1.00;;;23.70;65.10;;;;;;4972954;28;20515;-76
2022/05/15 11:33:00;;;;;;;;;;;23.80;64.60;;;;;;4956275;28;20043;-75
2022/05/15 11:35:30;;;;;;;2.42;1.00;;;23.90;65.40;;;;;;4973474;28;19910;-75
2022/05/15 11:37:56;;;;;;;2.78;0.93;;;24.10;66.40;;;;;;4971910;28;20077;-74
2022/05/15 11:40:35;;;;;;;3.10;0.95;;;24.20;64.90;;;;;;4952684;29;20035;-74
2022/05/15 11:43:55;;;;;;;4.18;1.02;;;24.30;64.50;;;;;;4953949;28;20034;-74
2022/05/15 11:46:21;;;;;;;4.80;1.10;;;24.40;62.70;;;;;;4916653;29;20114;-75
2022/05/15 11:48:52;;;;;;;1.77;1.27;;;24.50;64.30;;;;;;4965477;28;20122;-74
2022/05/15 11:51:25;;;;;;;;;;;24.50;63.90;;;;;;4971213;28;20023;-75
2022/05/15 11:53:56;;;;;;;2.38;0.90;;;24.50;60.40;;;;;;4972540;28;20421;-75
2022/05/15 11:56:24;;;;;;;2.80;1.00;;;24.50;65.00;;;;;;4971798;28;20475;-74
2022/05/15 11:59:15;;;;;;;2.88;0.90;;;24.60;62.70;;;;;;4973338;28;20039;-75
2022/05/15 12:01:48;;;;;;;2.58;0.98;;;24.70;63.00;;;;;;4953775;28;20035;-73
2022/05/15 12:04:46;;;;;;;2.83;0.90;;;24.70;63.40;;;;;;4955454;28;20059;-74
2022/05/15 12:07:32;;;;;;;1.90;1.15;;;24.80;61.60;;;;;;4941719;28;20047;-74
2022/05/15 12:10:01;;;;;;;2.03;1.00;;;24.90;59.60;;;;;;4970548;28;20030;-73
2022/05/15 12:12:45;;;;;;;2.95;1.05;;;25.00;61.30;;;;;;4972973;28;20104;-76
2022/05/15 12:15:13;;;;;;;1.63;1.17;;;25.10;63.10;;;;;;4971750;28;20037;-76
2022/05/15 12:17:43;;;;;;;3.25;0.88;;;25.10;60.80;;;;;;4956612;28;20031;-75
2022/05/15 12:20:17;;;;;;;3.47;0.90;;;25.20;60.70;;;;;;4952211;28;20429;-75
2022/05/15 12:23:13;;;;;;;4.47;1.10;;;25.20;61.90;;;;;;4966841;28;20080;-74
2022/05/15 12:25:56;;;;;;;2.72;1.00;;;25.30;61.40;;;;;;4937924;28;20061;-74
2022/05/15 12:28:52;;;;;;;1.92;1.00;;;25.50;59.20;;;;;;4972329;28;20031;-74
2022/05/15 12:31:24;;;;;;;3.22;1.00;;;25.60;59.30;;;;;;4971931;28;20023;-74
2022/05/15 12:33:50;;;;;;;1.10;0.90;;;25.70;59.60;;;;;;4955529;28;20510;-74
2022/05/15 12:36:37;;;;;;;4.78;0.90;;;25.80;59.50;;;;;;4955454;28;20030;-74
2022/05/15 12:39:04;;;;;;;2.80;0.98;;;26.00;60.60;;;;;;4955919;28;20066;-74
2022/05/15 12:41:32;;;;;;;0.75;0.70;;;26.20;61.60;;;;;;4971453;28;20110;-74
2022/05/15 12:44:00;;;;;;;5.25;1.00;;;26.40;59.50;;;;;;4973348;28;20035;-73
2022/05/15 12:46:30;;;;;;;1.33;0.93;;;26.50;59.30;;;;;;4971286;28;20027;-74
2022/05/15 12:48:57;;;;;;;1.42;0.80;;;26.70;59.60;;;;;;4964087;28;20066;-74
2022/05/15 12:51:32;;;;;;;2.53;1.10;;;26.80;59.50;;;;;;4991655;28;20037;-74
2022/05/15 12:54:00;;;;;;;3.55;1.23;;;26.90;56.90;;;;;;4992528;28;20402;-74
2022/05/15 12:56:32;;;;;;;4.25;1.23;;;27.00;57.60;;;;;;4991949;28;20085;-74
2022/05/15 12:59:13;;;;;;;3.85;1.20;;;27.10;57.10;;;;;;4970241;28;20045;-74
2022/05/15 13:01:39;;;;;;;1.80;1.10;;;27.30;56.50;;;;;;4973299;28;20034;-74
2022/05/15 13:04:07;;;;;;;1.73;0.95;;;27.40;56.90;;;;;;4973410;28;20043;-74
2022/05/15 13:06:39;;;;;;;4.80;1.20;;;27.60;57.70;;;;;;4972315;28;20468;-73
2022/05/15 13:09:10;;;;;;;4.57;1.30;;;27.70;55.40;;;;;;4971952;28;20113;-74
2022/05/15 13:11:46;;;;;;;3.13;1.00;;;27.80;55.70;;;;;;4973091;28;20058;-74
2022/05/15 13:14:28;;;;;;;1.60;0.98;;;28.00;57.40;;;;;;4955358;28;20498;-75
2022/05/15 13:16:55;;;;;;;1.20;1.00;;;28.10;53.90;;;;;;4973481;28;20030;-74
2022/05/15 13:19:37;;;;;;;2.80;1.10;;;28.10;56.00;;;;;;4971231;28;20038;-74
2022/05/15 13:22:04;;;;;;;2.50;1.10;;;28.40;55.30;;;;;;4971734;28;20397;-74
2022/05/15 13:24:32;;;;;;;1.70;0.93;;;28.80;55.00;;;;;;4971104;28;20034;-74
2022/05/15 13:26:59;;;;;;;3.50;1.63;;;29.20;54.50;;;;;;4971892;28;20365;-74